Time;durP1;ratioP1;P1;durP2;ratioP2;P2;SDS_P1;SDS_P2;PMS_P1;PMS_P2;Temp;Humidity;BMP_temperature;BMP_pressure;BME280_temperature;BME280_humidity;BME280_pressure;Samples;Min_cycle;Max_cycle;Signal;HPM_P1;HPM_P2
2023/04/16 00:02:02;;;;;;;28.90;21.60;;;;;;;9.66;97.36;100920.88;4985293;22;20235;-80
2023/04/16 00:04:29;;;;;;;30.03;22.10;;;;;;;9.63;97.57;100917.53;4978011;28;20224;-80
2023/04/16 00:06:55;;;;;;;29.13;22.03;;;;;;;9.63;97.52;100925.50;4976619;28;20930;-80
2023/04/16 00:09:26;;;;;;;28.60;21.87;;;;;;;9.60;97.49;100915.88;4975857;28;20201;-82
2023/04/16 00:11:52;;;;;;;28.63;21.37;;;;;;;9.57;97.75;100924.03;4976784;28;20236;-82
2023/04/16 00:14:19;;;;;;;30.63;22.43;;;;;;;9.57;97.80;100929.34;4972830;28;20654;-82
2023/04/16 00:16:45;;;;;;;32.53;22.77;;;;;;;9.56;97.81;100922.31;4977216;28;20208;-82
2023/04/16 00:19:12;;;;;;;29.07;22.07;;;;;;;9.55;98.02;100927.69;4975839;28;20240;-82
2023/04/16 00:21:39;;;;;;;34.13;24.23;;;;;;;9.52;97.94;100920.75;4975998;28;20234;-82
2023/04/16 00:24:05;;;;;;;33.90;22.33;;;;;;;9.51;98.37;100931.47;4972474;28;20245;-82
2023/04/16 00:26:37;;;;;;;31.87;22.90;;;;;;;9.50;98.86;100927.09;4973508;28;20679;-82
2023/04/16 00:29:03;;;;;;;35.90;24.00;;;;;;;9.49;98.59;100936.03;4976739;28;20290;-81
2023/04/16 00:31:32;;;;;;;29.77;23.30;;;;;;;9.45;98.82;100919.38;4975361;28;20651;-79
2023/04/16 00:33:59;;;;;;;32.97;23.80;;;;;;;9.44;98.54;100919.47;4973575;28;20219;-81
2023/04/16 00:36:27;;;;;;;32.00;23.73;;;;;;;9.42;98.81;100927.53;4974629;28;20212;-80
2023/04/16 00:38:54;;;;;;;31.40;23.10;;;;;;;9.43;99.49;100931.91;4974476;28;20235;-80
2023/04/16 00:41:21;;;;;;;32.80;23.63;;;;;;;9.42;98.97;100926.66;4974465;28;20232;-81
2023/04/16 00:43:50;;;;;;;29.47;24.10;;;;;;;9.39;99.43;100930.34;4979298;28;20672;-80
2023/04/16 00:46:18;;;;;;;31.50;23.23;;;;;;;9.39;99.55;100927.69;4973562;28;20208;-80
2023/04/16 00:48:46;;;;;;;31.60;23.97;;;;;;;9.39;99.61;100935.66;4972325;28;20223;-80
2023/04/16 00:51:13;;;;;;;34.13;21.93;;;;;;;9.37;99.01;100935.72;4972062;28;20295;-79
2023/04/16 00:53:39;;;;;;;37.30;24.40;;;;;;;9.36;100.00;100938.47;4969733;28;20208;-80
2023/04/16 00:56:07;;;;;;;37.87;25.20;;;;;;;9.35;99.65;100939.41;4976010;28;20236;-80
2023/04/16 00:58:34;;;;;;;36.37;24.37;;;;;;;9.34;99.73;100932.38;4972200;28;20216;-78
2023/04/16 01:01:02;;;;;;;32.97;23.27;;;;;;;9.32;99.89;100931.59;4977317;28;20232;-78
2023/04/16 01:03:38;;;;;;;36.27;25.67;;;;;;;9.31;100.00;100933.44;4971373;28;20637;-79
2023/04/16 01:06:05;;;;;;;37.50;25.60;;;;;;;9.30;100.00;100930.84;4971623;28;20248;-78
2023/04/16 01:08:32;;;;;;;39.27;26.43;;;;;;;9.29;100.00;100945.09;4971129;28;20208;-79
2023/04/16 01:10:58;;;;;;;36.67;25.40;;;;;;;9.27;100.00;100944.28;4966965;28;20236;-79
2023/04/16 01:13:25;;;;;;;35.57;24.90;;;;;;;9.26;100.00;100939.91;4974332;28;20200;-78
2023/04/16 01:15:51;;;;;;;34.80;25.03;;;;;;;9.26;100.00;100947.91;4973516;28;20204;-79
2023/04/16 01:18:21;;;;;;;33.33;23.97;;;;;;;9.26;100.00;100945.25;4973595;28;20852;-78
2023/04/16 01:20:49;;;;;;;38.40;26.20;;;;;;;9.24;100.00;100945.31;4972000;28;20732;-78
2023/04/16 01:23:17;;;;;;;35.37;25.00;;;;;;;9.25;100.00;100947.03;4970703;28;20227;-78
2023/04/16 01:25:43;;;;;;;35.87;24.80;;;;;;;9.25;100.00;100948.84;4972780;28;20207;-78
2023/04/16 01:28:10;;;;;;;39.07;25.27;;;;;;;9.24;100.00;100952.44;4969200;28;20217;-78
2023/04/16 01:30:37;;;;;;;40.63;26.23;;;;;;;9.23;100.00;100962.19;4972611;28;20666;-78
2023/04/16 01:33:03;;;;;;;35.57;25.67;;;;;;;9.22;100.00;100963.13;4972545;28;20219;-79
2023/04/16 01:35:30;;;;;;;44.60;27.63;;;;;;;9.20;100.00;100957.03;4972828;28;20216;-78
2023/04/16 01:37:58;;;;;;;44.77;27.73;;;;;;;9.19;100.00;100968.59;4972243;28;20208;-78
2023/04/16 01:40:24;;;;;;;39.07;26.87;;;;;;;9.18;100.00;100960.72;4967735;28;20596;-78
2023/04/16 01:42:51;;;;;;;41.63;28.10;;;;;;;9.18;100.00;100966.03;4973035;28;20662;-79
2023/04/16 01:45:17;;;;;;;44.67;28.77;;;;;;;9.17;100.00;100964.31;4970253;28;20209;-78
2023/04/16 01:47:44;;;;;;;37.47;26.73;;;;;;;9.15;100.00;100961.72;4962761;28;20250;-79
2023/04/16 01:50:11;;;;;;;41.90;26.40;;;;;;;9.16;100.00;100966.09;4968733;28;20323;-80
2023/04/16 01:52:37;;;;;;;40.13;26.83;;;;;;;9.15;100.00;100967.03;4965075;28;20201;-78
2023/04/16 01:55:06;;;;;;;35.30;25.43;;;;;;;9.16;100.00;100970.56;4970550;28;20200;-79
2023/04/16 01:57:33;;;;;;;36.80;25.90;;;;;;;9.15;100.00;100979.47;4975892;28;20216;-80
2023/04/16 01:59:59;;;;;;;38.20;25.60;;;;;;;9.15;100.00;100977.66;4967891;28;20219;-78
2023/04/16 02:02:27;;;;;;;43.40;25.33;;;;;;;9.14;100.00;100969.78;4968342;28;20677;-80
2023/04/16 02:04:55;;;;;;;37.87;24.80;;;;;;;9.12;100.00;100972.53;4972374;28;20307;-80
2023/04/16 02:07:21;;;;;;;38.33;26.17;;;;;;;9.11;100.00;100973.47;4966247;28;20223;-82
2023/04/16 02:09:49;;;;;;;36.50;25.30;;;;;;;9.10;100.00;100973.56;4970445;28;20205;-78
2023/04/16 02:12:17;;;;;;;39.50;26.40;;;;;;;9.06;100.00;100975.50;4969320;28;20228;-78
2023/04/16 02:14:43;;;;;;;39.57;26.03;;;;;;;9.04;100.00;100980.03;4971690;28;20205;-78
2023/04/16 02:17:10;;;;;;;37.50;25.83;;;;;;;9.01;100.00;100975.75;4971938;28;20208;-79
2023/04/16 02:19:36;;;;;;;38.10;26.90;;;;;;;9.00;100.00;100974.03;4969779;28;20233;-80
2023/04/16 02:22:03;;;;;;;37.87;26.67;;;;;;;9.00;100.00;100986.44;4971489;28;20719;-78
2023/04/16 02:24:30;;;;;;;39.53;26.40;;;;;;;8.99;100.00;100985.59;4966252;28;20260;-80
2023/04/16 02:26:57;;;;;;;39.37;26.23;;;;;;;8.96;100.00;100991.03;4971322;28;20200;-79
2023/04/16 02:29:24;;;;;;;39.10;26.17;;;;;;;8.94;100.00;100995.59;4972363;28;20860;-80
2023/04/16 02:31:51;;;;;;;42.90;27.87;;;;;;;8.92;100.00;101000.13;4970471;28;20319;-79
2023/04/16 02:34:17;;;;;;;42.67;27.57;;;;;;;8.91;100.00;101001.06;4973230;28;20208;-79
2023/04/16 02:36:44;;;;;;;41.20;27.53;;;;;;;8.89;100.00;101005.59;4974291;28;20216;-79
2023/04/16 02:39:10;;;;;;;41.37;28.23;;;;;;;8.85;100.00;100996.06;4975514;28;20208;-79
2023/04/16 02:41:37;;;;;;;45.03;27.90;;;;;;;8.84;100.00;100998.78;4970715;28;20254;-79
2023/04/16 02:44:03;;;;;;;44.70;28.33;;;;;;;8.80;100.00;100997.22;4971417;28;21081;-79
2023/04/16 02:46:31;;;;;;;41.23;23.93;;;;;;;8.76;100.00;101004.50;4972581;28;20204;-78
2023/04/16 02:48:58;;;;;;;48.20;28.93;;;;;;;8.74;100.00;101010.81;4972501;28;20219;-79
2023/04/16 02:51:25;;;;;;;44.77;28.30;;;;;;;8.72;100.00;100999.41;4970392;28;20235;-79
2023/04/16 02:53:51;;;;;;;44.10;28.87;;;;;;;8.70;100.00;101007.47;4971449;28;20204;-80
2023/04/16 02:56:18;;;;;;;45.17;28.93;;;;;;;8.67;100.00;101016.44;4973992;28;20219;-78
2023/04/16 02:58:44;;;;;;;47.37;29.13;;;;;;;8.65;100.00;101018.28;4970341;28;20212;-80
2023/04/16 03:01:10;;;;;;;43.47;27.63;;;;;;;8.65;100.00;101020.09;4970180;28;20229;-80
2023/04/16 03:03:38;;;;;;;45.17;28.13;;;;;;;8.62;100.00;101015.78;4971032;28;20231;-79
2023/04/16 03:06:05;;;;;;;44.10;26.87;;;;;;;8.60;100.00;101016.78;4971747;28;20212;-80
2023/04/16 03:08:37;;;;;;;48.83;29.23;;;;;;;8.58;100.00;101014.25;4969879;28;20291;-79
2023/04/16 03:11:03;;;;;;;43.17;27.13;;;;;;;8.53;100.00;101015.41;4971915;28;20231;-80
2023/04/16 03:13:39;;;;;;;44.13;27.53;;;;;;;8.52;100.00;101019.84;4973569;28;20209;-78
2023/04/16 03:16:06;;;;;;;43.40;26.60;;;;;;;8.50;100.00;101015.53;4969608;28;20645;-79
2023/04/16 03:18:32;;;;;;;48.27;27.70;;;;;;;8.50;100.00;101015.53;4972459;28;20215;-79
2023/04/16 03:21:00;;;;;;;44.40;28.17;;;;;;;8.48;100.00;101026.22;4972352;28;20235;-79
2023/04/16 03:23:27;;;;;;;43.37;27.30;;;;;;;8.47;100.00;101024.50;4971209;28;20304;-79
2023/04/16 03:25:53;;;;;;;41.37;27.40;;;;;;;8.45;100.00;101030.81;4975162;28;20737;-79
2023/04/16 03:28:20;;;;;;;45.97;26.97;;;;;;;8.43;100.00;101030.88;4970802;28;20231;-79
2023/04/16 03:30:50;;;;;;;43.77;27.80;;;;;;;8.42;100.00;101037.13;4971186;28;20251;-79
2023/04/16 03:33:17;;;;;;;44.73;25.40;;;;;;;8.39;100.00;101033.78;4972579;28;20216;-80
2023/04/16 03:35:43;;;;;;;43.83;26.00;;;;;;;8.38;100.00;101030.28;4964982;28;20228;-79
2023/04/16 03:38:11;;;;;;;41.47;26.50;;;;;;;8.35;100.00;101025.97;4972336;28;20212;-78
2023/04/16 03:40:38;;;;;;;43.97;25.87;;;;;;;8.35;100.00;101033.94;4973390;28;20220;-80
2023/04/16 03:43:05;;;;;;;42.43;27.73;;;;;;;8.33;100.00;101033.16;4968379;28;20213;-79
2023/04/16 03:45:31;;;;;;;41.33;24.73;;;;;;;8.32;100.00;101030.56;4967851;28;20224;-79
2023/04/16 03:47:58;;;;;;;42.23;25.80;;;;;;;8.29;100.00;101033.31;4971555;28;20207;-79
2023/04/16 03:50:24;;;;;;;41.90;26.47;;;;;;;8.27;100.00;101045.81;4967866;28;20681;-79
2023/04/16 03:52:51;;;;;;;44.00;26.53;;;;;;;8.26;100.00;101041.44;4964565;28;20216;-79
2023/04/16 03:55:18;;;;;;;47.50;26.67;;;;;;;8.24;100.00;101045.97;4967155;28;20201;-79
2023/04/16 03:57:45;;;;;;;46.73;27.33;;;;;;;8.20;100.00;101045.25;4972489;28;20208;-80
2023/04/16 04:00:13;;;;;;;49.73;27.67;;;;;;;8.20;100.00;101045.25;4971568;28;20225;-79
2023/04/16 04:02:39;;;;;;;47.87;26.70;;;;;;;8.18;100.00;101035.63;4969889;28;20261;-79
2023/04/16 04:05:06;;;;;;;44.60;28.43;;;;;;;8.17;100.00;101041.88;4961049;28;20262;-79
2023/04/16 04:07:32;;;;;;;48.47;27.13;;;;;;;8.15;100.00;101039.28;4971676;28;20814;-79
2023/04/16 04:09:59;;;;;;;42.07;26.67;;;;;;;8.15;100.00;101041.94;4968560;28;20682;-78
2023/04/16 04:12:27;;;;;;;38.43;25.17;;;;;;;8.14;100.00;101040.22;4970580;28;20728;-78
2023/04/16 04:14:53;;;;;;;44.33;25.77;;;;;;;8.11;100.00;101043.00;4970137;28;20204;-78
2023/04/16 04:17:19;;;;;;;40.20;26.17;;;;;;;8.10;100.00;101051.91;4972085;28;20208;-80
2023/04/16 04:19:46;;;;;;;45.10;25.23;;;;;;;8.08;100.00;101061.72;4973527;28;20679;-81
2023/04/16 04:22:12;;;;;;;46.80;26.10;;;;;;;8.08;100.00;101061.72;4966018;28;20668;-81
2023/04/16 04:24:39;;;;;;;46.20;26.67;;;;;;;8.07;100.00;101067.09;4969092;28;20220;-79
2023/04/16 04:27:05;;;;;;;49.50;27.70;;;;;;;8.04;100.00;101067.25;4968329;28;20204;-78
2023/04/16 04:29:33;;;;;;;47.50;26.97;;;;;;;8.03;100.00;101063.75;4967892;28;20208;-79
2023/04/16 04:31:59;;;;;;;43.50;26.47;;;;;;;8.00;100.00;101059.44;4964463;28;20240;-80
2023/04/16 04:34:26;;;;;;;41.87;24.77;;;;;;;7.98;100.00;101060.44;4968012;28;20234;-78
2023/04/16 04:36:52;;;;;;;44.00;26.47;;;;;;;7.95;100.00;101061.44;4966260;28;20647;-79
2023/04/16 04:39:20;;;;;;;47.67;26.37;;;;;;;7.94;100.00;101067.66;4971061;28;20208;-78
2023/04/16 04:41:47;;;;;;;48.80;28.10;;;;;;;7.95;100.00;101068.53;4973829;28;20256;-79
2023/04/16 04:44:13;;;;;;;47.30;27.60;;;;;;;7.95;100.00;101071.19;4974573;28;20228;-78
2023/04/16 04:46:41;;;;;;;49.63;27.53;;;;;;;7.93;100.00;101070.38;4974767;28;20200;-80
2023/04/16 04:49:08;;;;;;;49.70;26.63;;;;;;;7.93;100.00;101068.59;4970967;28;20216;-79
2023/04/16 04:51:34;;;;;;;46.03;27.47;;;;;;;7.93;100.00;101073.03;4969414;28;20224;-80
2023/04/16 04:54:00;;;;;;;51.87;28.80;;;;;;;7.93;100.00;101078.34;4968984;28;20217;-79
2023/04/16 04:56:27;;;;;;;48.27;27.80;;;;;;;7.93;100.00;101081.84;4968614;28;20213;-79
2023/04/16 04:58:54;;;;;;;50.77;27.20;;;;;;;7.93;100.00;101088.94;4974125;28;20823;-80
2023/04/16 05:01:21;;;;;;;52.00;28.20;;;;;;;7.91;100.00;101091.69;4969000;28;20725;-80
2023/04/16 05:03:48;;;;;;;48.67;26.53;;;;;;;7.92;100.00;101095.19;4973123;28;20213;-80
2023/04/16 05:06:16;;;;;;;51.03;27.27;;;;;;;7.92;100.00;101089.88;4967416;28;20204;-79
2023/04/16 05:08:42;;;;;;;45.47;27.77;;;;;;;7.91;100.00;101083.72;4972107;28;20208;-79
2023/04/16 05:11:09;;;;;;;43.73;26.97;;;;;;;7.91;100.00;101090.81;4967550;28;20228;-79
2023/04/16 05:13:35;;;;;;;48.80;28.43;;;;;;;7.90;100.00;101097.03;4977861;28;20219;-78
2023/04/16 05:16:01;;;;;;;50.17;27.00;;;;;;;7.90;100.00;101094.38;4964992;28;20237;-80
2023/04/16 05:18:28;;;;;;;45.27;27.03;;;;;;;7.89;100.00;101098.84;4966546;28;20819;-79
2023/04/16 05:20:56;;;;;;;49.33;27.67;;;;;;;7.91;100.00;101101.41;4971124;28;20236;-79
2023/04/16 05:23:22;;;;;;;46.27;27.60;;;;;;;7.91;100.00;101106.72;4971166;28;20204;-78
2023/04/16 05:25:49;;;;;;;47.13;26.93;;;;;;;7.91;100.00;101110.25;4974961;28;20238;-80
2023/04/16 05:28:15;;;;;;;45.37;25.33;;;;;;;7.92;100.00;101108.44;4979230;28;20234;-79
2023/04/16 05:30:41;;;;;;;41.20;26.13;;;;;;;7.91;100.00;101115.53;4973532;28;20780;-79
2023/04/16 05:33:08;;;;;;;45.60;26.30;;;;;;;7.92;100.00;101116.41;4966357;28;20216;-78
2023/04/16 05:35:34;;;;;;;45.23;26.73;;;;;;;7.92;100.00;101113.75;4972198;28;20208;-79
2023/04/16 05:38:03;;;;;;;42.70;26.13;;;;;;;7.92;100.00;101122.56;4971590;28;20251;-79
2023/04/16 05:40:29;;;;;;;43.97;25.17;;;;;;;7.92;100.00;101119.06;4978197;28;20263;-78
2023/04/16 05:42:56;;;;;;;41.80;26.73;;;;;;;7.91;100.00;101125.28;4975215;28;20235;-78
2023/04/16 05:45:22;;;;;;;45.33;25.80;;;;;;;7.91;100.00;101127.94;4972383;28;20693;-79
2023/04/16 05:47:49;;;;;;;38.90;24.47;;;;;;;7.92;100.00;101124.34;4965684;28;20224;-79
2023/04/16 05:50:15;;;;;;;45.27;25.20;;;;;;;7.93;100.00;101131.38;4963227;28;20232;-78
2023/04/16 05:52:42;;;;;;;48.27;25.80;;;;;;;7.91;100.00;101134.09;4968622;28;20222;-78
2023/04/16 05:55:10;;;;;;;41.83;25.67;;;;;;;7.89;100.00;101141.25;4973285;28;20209;-79
2023/04/16 05:57:36;;;;;;;46.77;24.27;;;;;;;7.89;100.00;101141.25;4973092;28;20200;-78
2023/04/16 06:00:03;;;;;;;42.03;25.23;;;;;;;7.89;100.00;101145.72;4968310;28;20236;-79
2023/04/16 06:02:30;;;;;;;41.70;24.07;;;;;;;7.88;100.00;101139.53;4960492;28;20717;-79
2023/04/16 06:04:56;;;;;;;41.03;24.90;;;;;;;7.89;100.00;101143.91;4966313;28;20251;-78
2023/04/16 06:07:23;;;;;;;42.33;24.27;;;;;;;7.89;100.00;101156.31;4967600;28;20207;-78
2023/04/16 06:09:49;;;;;;;44.03;23.97;;;;;;;7.88;100.00;101155.44;4971020;28;20629;-79
2023/04/16 06:12:17;;;;;;;39.70;23.37;;;;;;;7.88;100.00;101166.06;4969977;28;20259;-79
2023/04/16 06:14:44;;;;;;;35.87;21.60;;;;;;;7.88;100.00;101163.41;4970446;28;20211;-78
2023/04/16 06:17:11;;;;;;;40.63;24.23;;;;;;;7.89;100.00;101161.63;4967444;28;20220;-78
2023/04/16 06:19:37;;;;;;;40.33;24.10;;;;;;;7.90;100.00;101163.34;4977626;28;20230;-79
2023/04/16 06:22:05;;;;;;;41.60;25.00;;;;;;;7.90;100.00;101164.22;4972038;28;20251;-79
2023/04/16 06:24:31;;;;;;;39.10;24.50;;;;;;;7.91;100.00;101171.25;4970358;28;20735;-79
2023/04/16 06:26:58;;;;;;;45.77;25.40;;;;;;;7.92;100.00;101169.44;4970755;28;20303;-78
2023/04/16 06:29:26;;;;;;;38.27;23.57;;;;;;;7.93;100.00;101171.16;4973572;28;20219;-79
2023/04/16 06:31:52;;;;;;;39.17;23.43;;;;;;;7.94;100.00;101171.09;4974354;28;20228;-78
2023/04/16 06:34:19;;;;;;;38.67;22.73;;;;;;;7.94;100.00;101170.25;4969906;28;20215;-79
2023/04/16 06:36:45;;;;;;;39.50;24.00;;;;;;;7.95;100.00;101179.94;4973125;28;20296;-79
2023/04/16 06:39:12;;;;;;;39.40;23.60;;;;;;;7.97;100.00;101175.41;4971950;28;20219;-79
2023/04/16 06:41:38;;;;;;;39.97;23.70;;;;;;;7.97;100.00;101180.72;4971923;28;21042;-78
2023/04/16 06:44:05;;;;;;;40.70;23.13;;;;;;;7.97;100.00;101175.41;4976393;28;20212;-79
2023/04/16 06:46:33;;;;;;;36.97;22.63;;;;;;;7.98;100.00;101179.78;4970697;28;20231;-79
2023/04/16 06:48:59;;;;;;;36.50;22.17;;;;;;;8.01;100.00;101190.28;4971618;28;20296;-79
2023/04/16 06:51:26;;;;;;;36.33;22.20;;;;;;;8.01;100.00;101188.50;4974579;28;20231;-79
2023/04/16 06:53:53;;;;;;;40.27;23.23;;;;;;;8.02;100.00;101194.66;4968288;28;20628;-79
2023/04/16 06:56:19;;;;;;;36.37;21.80;;;;;;;8.02;100.00;101190.22;4970404;28;20203;-79
2023/04/16 06:58:45;;;;;;;34.67;23.10;;;;;;;8.04;100.00;101190.16;4971529;28;20236;-78
2023/04/16 07:01:12;;;;;;;37.23;22.20;;;;;;;8.04;100.00;101197.25;4963882;28;20251;-79
2023/04/16 07:03:40;;;;;;;36.87;22.70;;;;;;;8.05;100.00;101193.66;4968751;28;20216;-79
2023/04/16 07:06:06;;;;;;;37.70;21.83;;;;;;;8.05;100.00;101199.81;4973130;28;20235;-78
2023/04/16 07:08:33;;;;;;;35.00;21.57;;;;;;;8.07;100.00;101191.78;4973223;28;20212;-79
2023/04/16 07:10:59;;;;;;;36.40;21.47;;;;;;;8.07;100.00;101205.03;4964468;28;20232;-78
2023/04/16 07:13:26;;;;;;;34.87;20.70;;;;;;;8.07;100.00;101203.25;4971474;28;20813;-77
2023/04/16 07:15:52;;;;;;;34.80;20.77;;;;;;;8.08;100.00;101198.81;4969906;28;20205;-78
2023/04/16 07:18:19;;;;;;;30.63;19.27;;;;;;;8.08;100.00;101193.50;4971247;28;20551;-78
2023/04/16 07:20:47;;;;;;;34.43;21.13;;;;;;;8.08;100.00;101204.09;4979751;28;20256;-78
2023/04/16 07:23:14;;;;;;;34.73;20.70;;;;;;;8.08;100.00;101194.38;4967973;28;20203;-78
2023/04/16 07:25:40;;;;;;;29.87;20.73;;;;;;;8.09;100.00;101205.84;4967452;28;20340;-78
2023/04/16 07:28:07;;;;;;;28.70;20.00;;;;;;;8.10;100.00;101207.56;4964758;28;20204;-77
2023/04/16 07:30:34;;;;;;;35.47;21.60;;;;;;;8.12;100.00;101211.00;4971560;28;20262;-79
2023/04/16 07:33:01;;;;;;;35.40;20.73;;;;;;;8.13;100.00;101223.34;4972877;28;20216;-80
2023/04/16 07:35:27;;;;;;;36.43;21.43;;;;;;;8.13;100.00;101224.22;4975799;28;20246;-78
2023/04/16 07:37:55;;;;;;;31.97;20.80;;;;;;;8.16;100.00;101226.72;4968273;28;20643;-79
2023/04/16 07:40:22;;;;;;;34.83;21.60;;;;;;;8.17;100.00;101217.84;4963167;28;20225;-79
2023/04/16 07:42:49;;;;;;;33.17;20.70;;;;;;;8.20;100.00;101224.81;4969100;28;20223;-79
2023/04/16 07:45:15;;;;;;;30.83;20.30;;;;;;;8.20;100.00;101225.69;4967678;28;20235;-79
2023/04/16 07:47:42;;;;;;;38.73;21.97;;;;;;;8.19;100.00;101234.56;4971525;28;20207;-79
2023/04/16 07:50:09;;;;;;;32.83;20.83;;;;;;;8.20;100.00;101228.34;4969354;28;20228;-78
2023/04/16 07:52:37;;;;;;;30.83;20.43;;;;;;;8.21;100.00;101227.41;4970055;28;20216;-79
2023/04/16 07:55:06;;;;;;;33.47;21.33;;;;;;;8.22;100.00;101239.75;4974875;28;20199;-79
2023/04/16 07:57:33;;;;;;;31.87;19.90;;;;;;;8.23;100.00;101236.16;4973424;28;20218;-78
2023/04/16 08:00:00;;;;;;;28.67;18.73;;;;;;;8.25;100.00;101236.94;4970076;28;20208;-79
2023/04/16 08:02:27;;;;;;;26.67;18.53;;;;;;;8.25;100.00;101234.28;4968539;28;20224;-79
2023/04/16 08:04:54;;;;;;;31.60;19.47;;;;;;;8.26;100.00;101236.00;4972637;28;20208;-79
2023/04/16 08:07:20;;;;;;;27.93;18.33;;;;;;;8.29;100.00;101237.66;4970005;28;20223;-78
2023/04/16 08:09:48;;;;;;;26.93;19.03;;;;;;;8.31;100.00;101236.66;4976729;28;20220;-79
2023/04/16 08:12:17;;;;;;;27.43;18.47;;;;;;;8.34;100.00;101241.88;4983239;28;20228;-79
2023/04/16 08:14:43;;;;;;;30.70;19.67;;;;;;;8.36;100.00;101247.13;4980596;28;20239;-79
2023/04/16 08:17:11;;;;;;;29.83;18.77;;;;;;;8.39;100.00;101248.78;4976616;28;20287;-80
2023/04/16 08:19:37;;;;;;;29.37;19.03;;;;;;;8.43;100.00;101253.84;4971174;28;20219;-80
2023/04/16 08:22:04;;;;;;;26.57;17.83;;;;;;;8.44;100.00;101252.94;4980295;28;20219;-78
2023/04/16 08:24:30;;;;;;;30.67;17.90;;;;;;;8.48;100.00;101256.31;4974083;28;20280;-78
2023/04/16 08:26:57;;;;;;;24.10;16.80;;;;;;;8.50;100.00;101265.94;4980950;28;20335;-78
2023/04/16 08:29:26;;;;;;;26.60;16.90;;;;;;;8.50;100.00;101265.94;4975391;28;20560;-80
2023/04/16 08:31:54;;;;;;;28.63;18.67;;;;;;;8.51;100.00;101272.09;4974706;28;20251;-79
2023/04/16 08:34:20;;;;;;;25.63;16.83;;;;;;;8.50;100.00;101273.91;4976534;28;20200;-78
2023/04/16 08:36:47;;;;;;;26.27;17.53;;;;;;;8.50;99.87;101278.34;4978156;28;20204;-80
2023/04/16 08:39:13;;;;;;;25.87;18.10;;;;;;;8.53;99.19;101286.19;4980790;28;20208;-80
2023/04/16 08:41:43;;;;;;;25.77;17.10;;;;;;;8.55;99.18;101276.34;4975801;28;20224;-78
2023/04/16 08:44:14;;;;;;;23.37;17.50;;;;;;;8.59;99.18;101280.59;4973464;28;20208;-79
2023/04/16 08:46:43;;;;;;;30.23;18.90;;;;;;;8.61;98.85;101284.03;4976425;28;20238;-80
2023/04/16 08:49:16;;;;;;;33.90;20.00;;;;;;;8.66;98.74;101292.66;4973609;28;20208;-78
2023/04/16 08:51:48;;;;;;;27.63;18.97;;;;;;;8.67;98.89;101289.06;4978739;28;20261;-79
2023/04/16 08:54:32;;;;;;;32.03;21.20;;;;;;;8.70;98.29;101280.97;4974535;28;20820;-80
2023/04/16 08:56:59;;;;;;;29.50;19.57;;;;;;;8.74;98.65;101279.03;4968434;28;20205;-79
2023/04/16 08:59:26;;;;;;;26.63;19.40;;;;;;;8.76;97.94;101287.81;4969989;28;20219;-80
2023/04/16 09:01:57;;;;;;;30.13;20.40;;;;;;;8.79;97.94;101283.19;4973874;28;20304;-80
2023/04/16 09:04:26;;;;;;;28.20;20.00;;;;;;;8.86;98.12;101289.09;4974927;28;20208;-78
2023/04/16 09:06:54;;;;;;;29.13;18.63;;;;;;;8.87;97.75;101291.69;4973868;28;20271;-79
2023/04/16 09:09:21;;;;;;;28.60;18.93;;;;;;;8.91;97.08;101287.97;4973102;28;20200;-78
2023/04/16 09:11:51;;;;;;;27.03;19.93;;;;;;;8.93;97.46;101287.88;4970248;28;20228;-79
2023/04/16 09:14:17;;;;;;;30.53;18.93;;;;;;;8.95;96.43;101294.84;4968937;28;20209;-79
2023/04/16 09:16:46;;;;;;;28.03;19.23;;;;;;;8.98;96.82;101300.00;4973707;28;20197;-80
2023/04/16 09:19:14;;;;;;;27.43;18.87;;;;;;;9.01;96.28;101291.91;4972696;28;20204;-79
2023/04/16 09:21:40;;;;;;;26.10;19.03;;;;;;;9.04;95.66;101302.38;4967619;28;20228;-80
2023/04/16 09:24:08;;;;;;;23.40;18.00;;;;;;;9.05;96.26;101298.78;4971740;28;20216;-77
2023/04/16 09:26:35;;;;;;;28.63;19.43;;;;;;;9.10;95.34;101301.25;4967819;28;20220;-79
2023/04/16 09:29:01;;;;;;;24.83;17.90;;;;;;;9.11;95.12;101302.97;4975753;28;20777;-79
2023/04/16 09:31:28;;;;;;;27.93;18.07;;;;;;;9.13;95.14;101306.44;4974153;28;20224;-79
2023/04/16 09:34:02;;;;;;;28.77;18.30;;;;;;;9.17;94.96;101302.66;4975772;28;20241;-80
2023/04/16 09:36:31;;;;;;;29.10;19.90;;;;;;;9.20;95.13;101321.13;4973794;28;20562;-80
2023/04/16 09:38:58;;;;;;;28.47;19.47;;;;;;;9.21;94.86;101309.56;4972944;28;20215;-79
2023/04/16 09:41:27;;;;;;;31.60;20.73;;;;;;;9.21;94.30;101308.69;4973154;28;20232;-78
2023/04/16 09:43:57;;;;;;;24.87;17.83;;;;;;;9.26;94.84;101315.53;4971157;28;20887;-79
2023/04/16 09:46:25;;;;;;;29.50;18.27;;;;;;;9.29;94.58;101315.41;4971043;28;20236;-80
2023/04/16 09:48:51;;;;;;;28.83;17.87;;;;;;;9.32;94.00;101317.88;4969215;28;20204;-80
2023/04/16 09:51:18;;;;;;;29.47;18.60;;;;;;;9.35;94.41;101319.53;4973323;28;20220;-80
2023/04/16 09:53:45;;;;;;;29.30;17.93;;;;;;;9.39;93.69;101326.44;4972116;28;20211;-79
2023/04/16 09:56:13;;;;;;;24.97;17.47;;;;;;;9.36;92.95;101315.94;4974793;28;20205;-79
2023/04/16 09:58:48;;;;;;;25.37;16.87;;;;;;;9.34;93.06;101317.81;4965518;28;20236;-80
2023/04/16 10:01:15;;;;;;;25.23;18.60;;;;;;;9.37;92.56;101328.31;4970027;28;20783;-79
2023/04/16 10:03:42;;;;;;;29.03;19.27;;;;;;;9.34;92.61;101329.31;4969376;28;20646;-80
2023/04/16 10:06:14;;;;;;;32.47;18.67;;;;;;;9.34;92.15;101325.78;4974959;28;20745;-79
2023/04/16 10:08:43;;;;;;;30.50;19.10;;;;;;;9.36;92.67;101329.22;4968496;28;20210;-79
2023/04/16 10:11:11;;;;;;;26.87;16.93;;;;;;;9.38;92.21;101330.03;4968062;28;20239;-79
2023/04/16 10:13:37;;;;;;;29.13;18.90;;;;;;;9.39;92.24;101337.06;4970255;28;20208;-78
2023/04/16 10:16:05;;;;;;;27.17;17.37;;;;;;;9.40;92.18;101342.31;4974178;28;20215;-80
2023/04/16 10:18:31;;;;;;;31.53;19.70;;;;;;;9.40;91.89;101337.00;4969371;28;20702;-79
2023/04/16 10:20:58;;;;;;;27.60;18.40;;;;;;;9.41;91.99;101343.19;4966511;28;20244;-79
2023/04/16 10:23:26;;;;;;;29.17;18.83;;;;;;;9.40;91.68;101341.47;4971569;28;20219;-80
2023/04/16 10:25:54;;;;;;;27.23;18.47;;;;;;;9.40;91.90;101357.41;4970862;28;20242;-80
2023/04/16 10:28:23;;;;;;;27.70;18.00;;;;;;;9.41;91.66;101348.50;4966101;28;20232;-79
2023/04/16 10:30:54;;;;;;;28.30;18.20;;;;;;;9.43;91.52;101353.75;4972905;28;20246;-80
2023/04/16 10:33:23;;;;;;;27.10;18.77;;;;;;;9.43;91.39;101354.59;4974299;28;20291;-80
2023/04/16 10:35:50;;;;;;;25.50;16.80;;;;;;;9.42;91.96;101347.56;4975508;28;20223;-80
2023/04/16 10:38:24;;;;;;;26.20;16.87;;;;;;;9.44;91.72;101359.00;4969719;28;20204;-80
2023/04/16 10:40:51;;;;;;;23.87;17.40;;;;;;;9.47;91.69;101358.00;4972188;28;20224;-80
2023/04/16 10:43:18;;;;;;;24.43;17.33;;;;;;;9.47;91.89;101365.97;4974113;28;20207;-80
2023/04/16 10:45:48;;;;;;;26.93;18.40;;;;;;;9.48;92.01;101363.25;4978614;28;20209;-80
2023/04/16 10:48:16;;;;;;;29.97;18.93;;;;;;;9.51;91.58;101372.84;4972690;28;20266;-80
2023/04/16 10:50:42;;;;;;;24.53;16.70;;;;;;;9.49;91.61;101367.63;4970109;28;20236;-80
2023/04/16 10:53:20;;;;;;;29.03;19.60;;;;;;;9.51;91.83;101371.03;4968381;28;20232;-80
2023/04/16 10:56:11;;;;;;;24.80;18.27;;;;;;;9.52;92.24;101379.88;4969476;28;20196;-79
2023/04/16 10:58:38;;;;;;;27.93;18.97;;;;;;;9.53;91.46;101373.63;4976988;28;20502;-79
2023/04/16 11:01:12;;;;;;;25.20;17.83;;;;;;;9.51;91.87;101373.69;4972667;28;20595;-80
2023/04/16 11:03:41;;;;;;;26.27;18.97;;;;;;;9.50;92.49;101371.97;4971596;28;20236;-79
2023/04/16 11:06:13;;;;;;;28.10;18.83;;;;;;;9.48;92.41;101373.88;4968497;28;20224;-80
2023/04/16 11:08:41;;;;;;;27.07;19.27;;;;;;;9.47;92.27;101377.47;4974338;28;20210;-83
2023/04/16 11:11:07;;;;;;;24.93;17.73;;;;;;;9.45;92.90;101367.84;4977206;28;20295;-83
2023/04/16 11:13:36;;;;;;;27.70;19.33;;;;;;;9.44;92.44;101377.59;4978005;28;20216;-83